^^
Saratoga-Weather Station Historical Data
Daily Summary for February 18, 2020 Units:  Metric    English   Both
Daily Weekly Monthly Yearly Custom
  High: Low: Average:
Temperature: 24.5 °C 15 °C 18.9 °C
Dew Point: 18.4 °C 13.8 °C 15.4 °C
Humidity: 96% 55% 82%
Wind Speed: 29km/h 0km/h 2.3km/h
Wind Gust: 29km/h - -
Wind- - West
Pressure: 1011.9 hPa 1009.8 hPa -
Precipitation: 18.3 mm    
Historical Graphs
 
 
Tabular Data for February 18, 2020
Time Temperature Dew Point Pressure Wind Wind Speed Wind Gust Humidity Rainfall Rate (Hourly) solar
00:00 18.4 °C 14.7 °C 1010.5 hPa Calm   1.6 km/h 79% 0.0 mm 0 W/m2
00:05 18.4 °C 14.7 °C 1010.5 hPa Calm     79% 0.0 mm 0 W/m2
00:10 18.4 °C 14.7 °C 1010.5 hPa Calm   1.6 km/h 79% 0.0 mm 0 W/m2
00:15 18.4 °C 14.7 °C 1010.5 hPa West 1.4 km/h 4.8 km/h 79% 0.0 mm 0 W/m2
00:20 18.6 °C 14.9 °C 1010.5 hPa Calm     79% 0.0 mm 0 W/m2
00:25 18.7 °C 15 °C 1010.8 hPa Calm   4.8 km/h 79% 0.0 mm 0 W/m2
00:30 18.7 °C 15 °C 1010.8 hPa Calm     79% 0.0 mm 0 W/m2
00:35 18.6 °C 15.1 °C 1010.8 hPa Calm   1.6 km/h 80% 0.0 mm 0 W/m2
00:40 18.5 °C 14.8 °C 1010.8 hPa Calm     79% 0.0 mm 0 W/m2
00:45 18.4 °C 14.9 °C 1010.8 hPa Calm     80% 0.0 mm 0 W/m2
00:50 18.3 °C 14.8 °C 1010.8 hPa West 1.4 km/h 1.6 km/h 80% 0.0 mm 0 W/m2
00:55 18.2 °C 14.9 °C 1010.8 hPa Calm   3.2 km/h 81% 0.0 mm 0 W/m2
01:00 18.1 °C 14.8 °C 1010.8 hPa Calm   1.6 km/h 81% 0.0 mm 0 W/m2
01:05 18.1 °C 14.8 °C 1010.8 hPa Calm   3.2 km/h 81% 0.0 mm 0 W/m2
01:10 18.1 °C 14.6 °C 1010.8 hPa West 1.4 km/h 3.2 km/h 80% 0.0 mm 0 W/m2
01:15 18.2 °C 14.9 °C 1010.8 hPa Calm   1.6 km/h 81% 0.0 mm 0 W/m2
01:20 18.2 °C 14.7 °C 1010.8 hPa NW 7.9 km/h 12.9 km/h 80% 0.0 mm 0 W/m2
01:25 18.4 °C 14.7 °C 1010.8 hPa WSW 3.2 km/h 8 km/h 79% 0.0 mm 0 W/m2
01:30 18.6 °C 14.7 °C 1010.8 hPa West 1.4 km/h 12.9 km/h 78% 0.0 mm 0 W/m2
01:35 18.7 °C 14.8 °C 1010.8 hPa West 4.7 km/h 9.7 km/h 78% 0.0 mm 0 W/m2
01:40 18.7 °C 14.8 °C 1010.8 hPa WNW 4.7 km/h 6.4 km/h 78% 0.0 mm 0 W/m2
01:45 18.7 °C 14.8 °C 1010.8 hPa WNW 3.2 km/h 6.4 km/h 78% 0.0 mm 0 W/m2
01:50 18.6 °C 14.7 °C 1010.5 hPa WSW 6.4 km/h 8 km/h 78% 0.0 mm 0 W/m2
01:55 18.6 °C 14.7 °C 1010.5 hPa WNW 4.7 km/h 4.8 km/h 78% 0.0 mm 0 W/m2
02:00 18.6 °C 14.9 °C 1010.5 hPa Calm   8 km/h 79% 0.0 mm 0 W/m2
02:05 18.4 °C 14.7 °C 1010.5 hPa NW 1.4 km/h 6.4 km/h 79% 0.0 mm 0 W/m2
02:10 18.3 °C 14.6 °C 1010.5 hPa WSW 6.4 km/h 8 km/h 79% 0.0 mm 0 W/m2
02:15 18.2 °C 14.7 °C 1010.5 hPa WNW 1.4 km/h 6.4 km/h 80% 0.0 mm 0 W/m2
02:20 18.1 °C 14.6 °C 1010.5 hPa West 4.7 km/h 9.7 km/h 80% 0.0 mm 0 W/m2
02:25 18.1 °C 14.6 °C 1010.5 hPa WSW 3.2 km/h 11.3 km/h 80% 0.0 mm 0 W/m2
02:30 18.1 °C 14.6 °C 1010.5 hPa SW 1.4 km/h 6.4 km/h 80% 0.0 mm 0 W/m2
02:35 17.9 °C 14.6 °C 1010.5 hPa SW 4.7 km/h 6.4 km/h 81% 0.0 mm 0 W/m2
02:40 17.9 °C 14.6 °C 1010.5 hPa WNW 3.2 km/h 4.8 km/h 81% 0.0 mm 0 W/m2
02:45 17.8 °C 14.5 °C 1010.5 hPa West 1.4 km/h 4.8 km/h 81% 0.0 mm 0 W/m2
02:50 17.8 °C 14.5 °C 1010.5 hPa WNW 3.2 km/h 4.8 km/h 81% 0.0 mm 0 W/m2
02:55 17.9 °C 14.6 °C 1010.5 hPa West 1.4 km/h 4.8 km/h 81% 0.0 mm 0 W/m2
03:01 17.8 °C 14.5 °C 1010.5 hPa West 4.7 km/h 4.8 km/h 81% 0.0 mm 0 W/m2
03:06 17.8 °C 14.5 °C 1010.5 hPa WNW 1.4 km/h 11.3 km/h 81% 0.0 mm 0 W/m2
03:11 17.8 °C 14.5 °C 1010.5 hPa West 1.4 km/h 3.2 km/h 81% 0.0 mm 0 W/m2
03:16 17.8 °C 14.5 °C 1010.5 hPa West 3.2 km/h 11.3 km/h 81% 0.0 mm 0 W/m2
03:21 17.8 °C 14.7 °C 1010.5 hPa West 1.4 km/h 4.8 km/h 82% 0.0 mm 0 W/m2
03:26 17.8 °C 14.7 °C 1010.5 hPa WNW 3.2 km/h 4.8 km/h 82% 0.0 mm 0 W/m2
03:31 17.8 °C 14.7 °C 1010.5 hPa West 3.2 km/h 4.8 km/h 82% 0.0 mm 0 W/m2
03:36 17.7 °C 14.6 °C 1010.5 hPa West 3.2 km/h 6.4 km/h 82% 0.0 mm 0 W/m2
03:41 17.7 °C 14.6 °C 1010.8 hPa WSW 3.2 km/h 8 km/h 82% 0.0 mm 0 W/m2
03:46 17.6 °C 14.5 °C 1010.5 hPa WSW 3.2 km/h 4.8 km/h 82% 0.0 mm 0 W/m2
03:51 17.6 °C 14.7 °C 1010.5 hPa West 4.7 km/h 6.4 km/h 83% 0.0 mm 0 W/m2
03:56 17.6 °C 14.7 °C 1010.5 hPa West 3.2 km/h 8 km/h 83% 0.0 mm 0 W/m2
04:01 17.5 °C 14.6 °C 1010.5 hPa Calm   3.2 km/h 83% 0.0 mm 0 W/m2
04:06 17.4 °C 14.5 °C 1010.8 hPa WNW 3.2 km/h 8 km/h 83% 0.0 mm 0 W/m2
04:11 17.4 °C 14.5 °C 1010.8 hPa SW 1.4 km/h 4.8 km/h 83% 0.0 mm 0 W/m2
04:16 17.4 °C 14.5 °C 1010.8 hPa West 3.2 km/h 9.7 km/h 83% 0.0 mm 0 W/m2
04:21 17.4 °C 14.7 °C 1010.8 hPa Calm   6.4 km/h 84% 0.0 mm 0 W/m2
04:26 17.4 °C 14.7 °C 1010.8 hPa WNW 1.4 km/h 8 km/h 84% 0.0 mm 0 W/m2
04:31 17.3 °C 14.6 °C 1010.8 hPa WNW 3.2 km/h 4.8 km/h 84% 0.0 mm 0 W/m2
04:36 17.2 °C 14.5 °C 1010.8 hPa WNW 9.7 km/h 9.7 km/h 84% 0.0 mm 0 W/m2
04:41 17.2 °C 14.7 °C 1010.8 hPa SSW 3.2 km/h 3.2 km/h 85% 0.0 mm 0 W/m2
04:46 17.2 °C 14.7 °C 1010.8 hPa West 3.2 km/h 3.2 km/h 85% 0.0 mm 0 W/m2
04:51 17.2 °C 14.7 °C 1010.8 hPa West 4.7 km/h 6.4 km/h 85% 0.0 mm 0 W/m2
04:56 17.2 °C 14.7 °C 1010.8 hPa Calm   6.4 km/h 85% 0.0 mm 0 W/m2
05:01 17.1 °C 14.6 °C 1010.8 hPa West 3.2 km/h 4.8 km/h 85% 0.0 mm 0 W/m2
05:06 17.1 °C 14.6 °C 1010.8 hPa West 1.4 km/h 6.4 km/h 85% 0.0 mm 0 W/m2
05:11 17.1 °C 14.6 °C 1010.8 hPa West 4.7 km/h 4.8 km/h 85% 0.0 mm 0 W/m2
05:16 17.1 °C 14.6 °C 1010.8 hPa West 3.2 km/h 6.4 km/h 85% 0.0 mm 0 W/m2
05:21 17.1 °C 14.6 °C 1010.8 hPa WSW 3.2 km/h 6.4 km/h 85% 0.0 mm 0 W/m2
05:26 17.1 °C 14.6 °C 1010.8 hPa WSW 1.4 km/h 6.4 km/h 85% 0.0 mm 0 W/m2
05:31 17.1 °C 14.6 °C 1010.8 hPa SW 4.7 km/h 6.4 km/h 85% 0.0 mm 0 W/m2
05:36 17.1 °C 14.6 °C 1010.5 hPa WNW 1.4 km/h 4.8 km/h 85% 0.0 mm 0 W/m2
05:42 17.1 °C 14.6 °C 1010.5 hPa Calm   6.4 km/h 85% 0.0 mm 0 W/m2
05:47 17 °C 14.5 °C 1010.5 hPa NW 1.4 km/h 3.2 km/h 85% 0.0 mm 0 W/m2
05:52 16.9 °C 14.4 °C 1010.5 hPa WNW 3.2 km/h 6.4 km/h 85% 0.0 mm 0 W/m2
05:57 16.9 °C 14.4 °C 1010.5 hPa WNW 1.4 km/h 3.2 km/h 85% 0.0 mm 0 W/m2
06:02 16.8 °C 14.4 °C 1010.5 hPa West 3.2 km/h 6.4 km/h 86% 0.0 mm 0 W/m2
06:07 16.8 °C 14.4 °C 1010.5 hPa West 1.4 km/h 3.2 km/h 86% 0.0 mm 0 W/m2
06:12 16.8 °C 14.4 °C 1010.5 hPa WSW 3.2 km/h 3.2 km/h 86% 0.0 mm 0 W/m2
06:17 16.7 °C 14.3 °C 1010.5 hPa West 4.7 km/h 4.8 km/h 86% 0.0 mm 0 W/m2
06:22 16.7 °C 14.3 °C 1010.5 hPa Calm   1.6 km/h 86% 0.0 mm 0 W/m2
06:27 16.7 °C 14.3 °C 1010.5 hPa Calm   4.8 km/h 86% 0.0 mm 0 W/m2
06:33 16.6 °C 14.2 °C 1010.5 hPa Calm   1.6 km/h 86% 0.0 mm 0 W/m2
06:38 16.6 °C 14.2 °C 1010.5 hPa NW 1.4 km/h 1.6 km/h 86% 0.0 mm 0 W/m2
06:43 16.5 °C 14.3 °C 1010.8 hPa Calm   1.6 km/h 87% 0.0 mm 5 W/m2
06:48 16.4 °C 14.2 °C 1010.8 hPa Calm   1.6 km/h 87% 0.0 mm 7 W/m2
06:53 16.3 °C 14.1 °C 1010.8 hPa Calm     87% 0.0 mm 9 W/m2
06:58 16.2 °C 14 °C 1010.8 hPa Calm   3.2 km/h 87% 0.0 mm 11 W/m2
07:03 16.1 °C 14.1 °C 1010.8 hPa Calm   3.2 km/h 88% 0.0 mm 11 W/m2
07:08 15.9 °C 13.9 °C 1010.8 hPa NW 1.4 km/h 3.2 km/h 88% 0.0 mm 12 W/m2
07:13 15.8 °C 14 °C 1010.8 hPa Calm     89% 0.0 mm 11 W/m2
07:18 15.8 °C 14 °C 1010.8 hPa Calm   3.2 km/h 89% 0.0 mm 12 W/m2
07:23 15.7 °C 13.9 °C 1010.8 hPa Calm     89% 0.0 mm 14 W/m2
07:28 15.7 °C 14.1 °C 1010.8 hPa Calm     90% 0.0 mm 19 W/m2
07:33 15.7 °C 14.1 °C 1010.8 hPa NW 3.2 km/h 3.2 km/h 90% 0.0 mm 21 W/m2
07:38 15.9 °C 14.3 °C 1011.2 hPa West 3.2 km/h 9.7 km/h 90% 0.0 mm 21 W/m2
07:43 16.1 °C 14.5 °C 1011.2 hPa WNW 4.7 km/h 11.3 km/h 90% 0.0 mm 23 W/m2
07:48 16.3 °C 14.5 °C 1010.8 hPa West 3.2 km/h 6.4 km/h 89% 0.0 mm 33 W/m2
07:53 16.5 °C 14.7 °C 1010.8 hPa WNW 3.2 km/h 4.8 km/h 89% 0.0 mm 37 W/m2
07:58 16.8 °C 14.8 °C 1010.8 hPa NNW 1.4 km/h 6.4 km/h 88% 0.0 mm 39 W/m2
08:03 16.9 °C 14.7 °C 1011.2 hPa NE 1.4 km/h 3.2 km/h 87% 0.0 mm 39 W/m2
08:08 17 °C 14.8 °C 1011.2 hPa Calm   1.6 km/h 87% 0.0 mm 42 W/m2
08:13 17.2 °C 15 °C 1011.2 hPa NE 1.4 km/h 3.2 km/h 87% 0.0 mm 42 W/m2
08:18 17.4 °C 15 °C 1011.2 hPa NNW 1.4 km/h 1.6 km/h 86% 0.0 mm 44 W/m2
08:23 17.8 °C 15.2 °C 1011.2 hPa NNW 1.4 km/h 3.2 km/h 85% 0.0 mm 47 W/m2
08:28 18 °C 15.3 °C 1011.2 hPa WNW 1.4 km/h 9.7 km/h 84% 0.0 mm 51 W/m2
08:33 18.2 °C 15.3 °C 1011.2 hPa ENE 3.2 km/h 4.8 km/h 83% 0.0 mm 62 W/m2
08:38 18.4 °C 15.5 °C 1011.5 hPa NNW 3.2 km/h 9.7 km/h 83% 0.0 mm 63 W/m2
08:43 18.7 °C 15.6 °C 1011.5 hPa NW 3.2 km/h 6.4 km/h 82% 0.0 mm 56 W/m2
08:49 18.8 °C 15.5 °C 1011.5 hPa WNW 6.4 km/h 11.3 km/h 81% 0.0 mm 174 W/m2
08:54 18.9 °C 15.6 °C 1011.2 hPa NW 3.2 km/h 6.4 km/h 81% 0.0 mm 267 W/m2
08:59 18.9 °C 15.6 °C 1011.5 hPa WNW 1.4 km/h 3.2 km/h 81% 0.0 mm 276 W/m2
09:04 19.1 °C 15.6 °C 1011.5 hPa NW 3.2 km/h 8 km/h 80% 0.0 mm 279 W/m2
09:09 19.1 °C 15.6 °C 1011.5 hPa NW 4.7 km/h 6.4 km/h 80% 0.0 mm 313 W/m2
09:19 19.5 °C 16 °C 1011.5 hPa Calm   1.6 km/h 80% 0.0 mm 186 W/m2
09:24 19.6 °C 15.9 °C 1011.9 hPa WNW 3.2 km/h 6.4 km/h 79% 0.0 mm 339 W/m2
09:29 19.6 °C 15.9 °C 1011.5 hPa SW 1.4 km/h 11.3 km/h 79% 0.0 mm 383 W/m2
09:34 19.7 °C 16 °C 1011.5 hPa Calm   3.2 km/h 79% 0.0 mm 70 W/m2
09:39 19.9 °C 15.9 °C 1011.5 hPa ESE 6.4 km/h 6.4 km/h 78% 0.0 mm 137 W/m2
09:44 20 °C 15.8 °C 1011.5 hPa ESE 3.2 km/h 6.4 km/h 77% 0.0 mm 186 W/m2
09:49 20.1 °C 15.7 °C 1011.5 hPa North 3.2 km/h 4.8 km/h 76% 0.0 mm 130 W/m2
09:54 20.1 °C 15.7 °C 1011.5 hPa NNW 3.2 km/h 3.2 km/h 76% 0.0 mm 431 W/m2
09:59 20.1 °C 15.3 °C 1011.5 hPa Calm   3.2 km/h 74% 0.0 mm 339 W/m2
10:04 20.3 °C 15.5 °C 1011.5 hPa Calm   1.6 km/h 74% 0.0 mm 250 W/m2
10:09 20.6 °C 15.6 °C 1011.5 hPa Calm   1.6 km/h 73% 0.0 mm 197 W/m2
10:14 20.7 °C 15.5 °C 1011.5 hPa Calm   3.2 km/h 72% 0.0 mm 162 W/m2
10:19 20.9 °C 15.9 °C 1011.5 hPa NE 1.4 km/h 1.6 km/h 73% 0.0 mm 162 W/m2
10:25 20.9 °C 16.1 °C 1011.5 hPa ENE 4.7 km/h 6.4 km/h 74% 0.0 mm 160 W/m2
10:30 20.9 °C 15.9 °C 1011.5 hPa East 1.4 km/h 4.8 km/h 73% 0.0 mm 288 W/m2
10:35 21.1 °C 15.9 °C 1011.5 hPa North 1.4 km/h 3.2 km/h 72% 0.0 mm 311 W/m2
10:40 21.1 °C 15.9 °C 1011.5 hPa NW 1.4 km/h 3.2 km/h 72% 0.0 mm 360 W/m2
10:45 21.2 °C 15.7 °C 1011.5 hPa NNW 1.4 km/h 4.8 km/h 71% 0.0 mm 330 W/m2
10:50 21.2 °C 15.7 °C 1011.5 hPa Calm   3.2 km/h 71% 0.0 mm 318 W/m2
10:55 21.3 °C 15.4 °C 1011.5 hPa West 4.7 km/h 8 km/h 69% 0.0 mm 294 W/m2
11:00 21.6 °C 15.7 °C 1011.5 hPa Calm   3.2 km/h 69% 0.0 mm 281 W/m2
11:05 21.8 °C 15.4 °C 1011.5 hPa WNW 1.4 km/h 8 km/h 67% 0.0 mm 295 W/m2
11:10 21.9 °C 15.5 °C 1011.5 hPa WSW 4.7 km/h 11.3 km/h 67% 0.0 mm 299 W/m2
11:15 21.8 °C 15.9 °C 1011.5 hPa NW 1.4 km/h 3.2 km/h 69% 0.0 mm 360 W/m2
11:20 21.8 °C 15.4 °C 1011.5 hPa West 4.7 km/h 6.4 km/h 67% 0.0 mm 355 W/m2
11:25 21.8 °C 15.6 °C 1011.5 hPa WNW 1.4 km/h 6.4 km/h 68% 0.0 mm 353 W/m2
11:30 21.9 °C 15.7 °C 1011.5 hPa NW 4.7 km/h 8 km/h 68% 0.0 mm 301 W/m2
11:35 21.8 °C 15.9 °C 1011.5 hPa NW 3.2 km/h 6.4 km/h 69% 0.0 mm 206 W/m2
11:40 21.8 °C 15.9 °C 1011.5 hPa NNW 3.2 km/h 6.4 km/h 69% 0.0 mm 207 W/m2
11:45 21.8 °C 15.9 °C 1011.5 hPa West 3.2 km/h 6.4 km/h 69% 0.0 mm 733 W/m2
11:50 22.1 °C 15.7 °C 1011.5 hPa WNW 7.9 km/h 9.7 km/h 67% 0.0 mm 777 W/m2
11:55 22.2 °C 15.3 °C 1011.5 hPa WSW 3.2 km/h 4.8 km/h 65% 0.0 mm 749 W/m2
12:00 22.1 °C 15.2 °C 1011.5 hPa Calm   1.6 km/h 65% 0.0 mm 204 W/m2
12:05 22.3 °C 15.4 °C 1011.2 hPa Calm   3.2 km/h 65% 0.0 mm 838 W/m2
12:10 22.7 °C 15.5 °C 1011.2 hPa South 1.4 km/h 4.8 km/h 64% 0.0 mm 812 W/m2
12:15 22.9 °C 15.2 °C 1011.2 hPa NNW 4.7 km/h 4.8 km/h 62% 0.0 mm 923 W/m2
12:20 23 °C 15.1 °C 1011.2 hPa West 11.1 km/h 14.5 km/h 61% 0.0 mm 338 W/m2
12:25 22.9 °C 14.7 °C 1011.2 hPa WNW 3.2 km/h 6.4 km/h 60% 0.0 mm 308 W/m2
12:30 23 °C 14.6 °C 1011.2 hPa WNW 6.4 km/h 9.7 km/h 59% 0.0 mm 313 W/m2
12:35 23 °C 15.1 °C 1010.8 hPa East 1.4 km/h 4.8 km/h 61% 0.0 mm 329 W/m2
12:40 23.2 °C 14.7 °C 1011.2 hPa West 14.3 km/h 14.5 km/h 59% 0.0 mm 381 W/m2
12:45 23.3 °C 14.6 °C 1010.8 hPa NW 4.7 km/h 11.3 km/h 58% 0.0 mm 446 W/m2
12:50 23.6 °C 14.6 °C 1010.8 hPa West 3.2 km/h 11.3 km/h 57% 0.0 mm 311 W/m2
12:55 23.4 °C 14.7 °C 1010.8 hPa WSW 3.2 km/h 14.5 km/h 58% 0.0 mm 190 W/m2
13:00 23.3 °C 14.8 °C 1010.8 hPa ESE 1.4 km/h 6.4 km/h 59% 0.0 mm 160 W/m2
13:05 23.2 °C 14.7 °C 1010.8 hPa West 6.4 km/h 9.7 km/h 59% 0.0 mm 278 W/m2
13:10 23.1 °C 14.9 °C 1010.8 hPa WNW 4.7 km/h 11.3 km/h 60% 0.0 mm 329 W/m2
13:15 23.2 °C 15.3 °C 1010.8 hPa West 11.1 km/h 12.9 km/h 61% 0.0 mm 285 W/m2
13:20 23.2 °C 15 °C 1010.5 hPa NNW 3.2 km/h 4.8 km/h 60% 0.0 mm 309 W/m2
13:25 23.3 °C 14.8 °C 1010.5 hPa North 3.2 km/h 12.9 km/h 59% 0.0 mm 309 W/m2
13:30 23.8 °C 15.3 °C 1010.5 hPa Calm   6.4 km/h 59% 0.0 mm 668 W/m2
13:35 24.3 °C 15.2 °C 1010.5 hPa WNW 4.7 km/h 4.8 km/h 57% 0.0 mm 875 W/m2
13:40 24.5 °C 14.9 °C 1010.5 hPa West 4.7 km/h 9.7 km/h 55% 0.0 mm 919 W/m2
13:45 24.2 °C 14.6 °C 1010.5 hPa NE 1.4 km/h 3.2 km/h 55% 0.0 mm 183 W/m2
13:50 24.1 °C 14.5 °C 1010.5 hPa North 1.4 km/h 9.7 km/h 55% 0.0 mm 137 W/m2
13:55 23.9 °C 14.6 °C 1010.5 hPa West 4.7 km/h 4.8 km/h 56% 0.0 mm 127 W/m2
14:00 23.8 °C 15 °C 1010.2 hPa North 3.2 km/h 4.8 km/h 58% 0.0 mm 116 W/m2
14:05 23.6 °C 14.9 °C 1010.5 hPa Calm   1.6 km/h 58% 0.0 mm 104 W/m2
14:10 23.6 °C 15.1 °C 1010.5 hPa WNW 1.4 km/h 4.8 km/h 59% 0.0 mm 77 W/m2
14:15 23.6 °C 14.9 °C 1010.5 hPa WNW 3.2 km/h 6.4 km/h 58% 0.0 mm 72 W/m2
14:20 23.4 °C 16.2 °C 1010.5 hPa Calm   1.6 km/h 64% 0.0 mm 84 W/m2
14:25 23.2 °C 16 °C 1010.5 hPa Calm   6.4 km/h 64% 0.0 mm 98 W/m2
14:30 23.1 °C 15.9 °C 1010.5 hPa Calm   1.6 km/h 64% 0.0 mm 86 W/m2
14:35 23 °C 15.3 °C 1010.5 hPa WNW 1.4 km/h 6.4 km/h 62% 0.0 mm 109 W/m2
14:40 22.8 °C 15.6 °C 1010.5 hPa NW 3.2 km/h 11.3 km/h 64% 0.0 mm 128 W/m2
14:45 22.5 °C 16.5 °C 1010.5 hPa West 4.7 km/h 6.4 km/h 69% 0.0 mm 118 W/m2
14:50 22.1 °C 16.1 °C 1010.5 hPa NW 3.2 km/h 3.2 km/h 69% 0.0 mm 102 W/m2
14:55 21.8 °C 16.5 °C 1010.5 hPa WNW 3.2 km/h 6.4 km/h 72% 0.2 mm 88 W/m2
15:00 21.3 °C 16.5 °C 1010.5 hPa NNW 1.4 km/h 6.4 km/h 74% 0.5 mm 95 W/m2
15:05 20.8 °C 16.8 °C 1010.5 hPa WNW 3.2 km/h 11.3 km/h 78% 0.5 mm 127 W/m2
15:10 20.4 °C 17 °C 1010.5 hPa West 6.4 km/h 12.9 km/h 81% 0.5 mm 285 W/m2
15:15 20.3 °C 17.3 °C 1010.5 hPa WNW 3.2 km/h 4.8 km/h 83% 0.5 mm 327 W/m2
15:20 20.6 °C 17.6 °C 1010.5 hPa NW 4.7 km/h 12.9 km/h 83% 0.5 mm 947 W/m2
15:25 21.1 °C 18.1 °C 1010.2 hPa NW 3.2 km/h 6.4 km/h 83% 0.5 mm 884 W/m2
15:30 21.8 °C 18 °C 1010.2 hPa NW 9.7 km/h 9.7 km/h 79% 0.5 mm 786 W/m2
15:35 22.3 °C 18.1 °C 1010.2 hPa WNW 3.2 km/h 6.4 km/h 77% 0.5 mm 800 W/m2
15:40 22.6 °C 17.7 °C 1010.2 hPa North 4.7 km/h 6.4 km/h 74% 0.5 mm 327 W/m2
15:45 22.7 °C 17.6 °C 1009.8 hPa NW 1.4 km/h 8 km/h 73% 0.5 mm 258 W/m2
15:50 22.7 °C 18 °C 1009.8 hPa WSW 1.4 km/h 4.8 km/h 75% 0.5 mm 188 W/m2
15:55 22.6 °C 17.9 °C 1009.8 hPa WSW 1.4 km/h 4.8 km/h 75% 0.5 mm 183 W/m2
16:00 22.4 °C 17.5 °C 1009.8 hPa NNW 1.4 km/h 4.8 km/h 74% 0.2 mm 209 W/m2
16:05 22.4 °C 17.5 °C 1009.8 hPa West 3.2 km/h 3.2 km/h 74% 0.2 mm 232 W/m2
16:10 22.3 °C 17.4 °C 1009.8 hPa WNW 1.4 km/h 6.4 km/h 74% 0.0 mm 148 W/m2
16:15 22.3 °C 17.4 °C 1009.8 hPa West 4.7 km/h 6.4 km/h 74% 0.0 mm 162 W/m2
16:20 22.2 °C 18 °C 1009.8 hPa West 4.7 km/h 6.4 km/h 77% 0.0 mm 186 W/m2
16:25 22.3 °C 18.3 °C 1009.8 hPa WNW 4.7 km/h 8 km/h 78% 0.0 mm 802 W/m2
16:30 22.2 °C 18 °C 1009.8 hPa North 6.4 km/h 12.9 km/h 77% 0.0 mm 281 W/m2
16:35 21.9 °C 17.5 °C 1009.8 hPa NW 7.9 km/h 12.9 km/h 76% 0.0 mm 148 W/m2
16:41 21.6 °C 16.8 °C 1009.8 hPa WSW 4.7 km/h 11.3 km/h 74% 0.0 mm 121 W/m2
16:46 21.1 °C 15.9 °C 1009.8 hPa WNW 4.7 km/h 8 km/h 72% 0.0 mm 90 W/m2
16:51 20.8 °C 15.6 °C 1009.8 hPa WSW 6.4 km/h 9.7 km/h 72% 0.0 mm 49 W/m2
16:56 20.7 °C 15.9 °C 1009.8 hPa WNW 6.4 km/h 6.4 km/h 74% 0.0 mm 30 W/m2
17:01 20.5 °C 15.9 °C 1009.8 hPa West 9.7 km/h 16.1 km/h 75% 0.0 mm 14 W/m2
17:06 20.1 °C 15.1 °C 1010.2 hPa West 20.9 km/h 22.5 km/h 73% 0.5 mm 7 W/m2
17:11 18.7 °C 15.2 °C 1010.5 hPa WNW 29 km/h 29 km/h 80% 2.8 mm 7 W/m2
17:16 16.7 °C 14.2 °C 1010.8 hPa NW 17.7 km/h 25.7 km/h 85% 9.4 mm 9 W/m2
17:21 16.1 °C 13.8 °C 1010.8 hPa SW 7.9 km/h 14.5 km/h 86% 15.5 mm 26 W/m2
17:26 15.9 °C 14.1 °C 1010.5 hPa Calm   4.8 km/h 89% 17.5 mm 109 W/m2
17:31 15.8 °C 14.3 °C 1010.5 hPa SSW 1.4 km/h 3.2 km/h 91% 17.5 mm 162 W/m2
17:36 16.2 °C 15.1 °C 1010.5 hPa SSW 1.4 km/h 4.8 km/h 93% 17.5 mm 221 W/m2
17:41 16.4 °C 15.3 °C 1010.2 hPa SSE 1.4 km/h 4.8 km/h 93% 17.5 mm 255 W/m2
17:46 16.7 °C 15.7 °C 1010.2 hPa Calm     94% 17.5 mm 251 W/m2
17:51 17 °C 16 °C 1010.2 hPa Calm   3.2 km/h 94% 17.5 mm 255 W/m2
17:56 17.2 °C 16.2 °C 1010.2 hPa Calm   1.6 km/h 94% 17.5 mm 290 W/m2
18:01 17.6 °C 16.8 °C 1010.2 hPa Calm     95% 17.5 mm 185 W/m2
18:06 17.8 °C 17 °C 1010.2 hPa WSW 3.2 km/h 3.2 km/h 95% 17.3 mm 144 W/m2
18:11 17.8 °C 16.8 °C 1010.2 hPa Calm     94% 14.0 mm 125 W/m2
18:16 17.7 °C 16.7 °C 1010.2 hPa WSW 1.4 km/h 3.2 km/h 94% 7.9 mm 118 W/m2
18:21 17.7 °C 16.7 °C 1010.2 hPa SW 1.4 km/h 1.6 km/h 94% 1.5 mm 104 W/m2
18:26 17.6 °C 16.6 °C 1010.2 hPa Calm   3.2 km/h 94% 0.2 mm 109 W/m2
18:31 17.7 °C 16.7 °C 1010.2 hPa SW 1.4 km/h 1.6 km/h 94% 0.0 mm 107 W/m2
18:37 17.7 °C 16.7 °C 1010.2 hPa SW 1.4 km/h 3.2 km/h 94% 0.0 mm 135 W/m2
18:42 17.8 °C 16.8 °C 1010.2 hPa Calm   1.6 km/h 94% 0.0 mm 156 W/m2
18:47 18.1 °C 17.3 °C 1010.2 hPa Calm     95% 0.0 mm 269 W/m2
18:52 18.3 °C 17.5 °C 1010.2 hPa SW 3.2 km/h 3.2 km/h 95% 0.0 mm 378 W/m2
18:57 18.4 °C 17.4 °C 1010.2 hPa West 1.4 km/h 3.2 km/h 94% 0.0 mm 339 W/m2
19:02 18.6 °C 17.6 °C 1010.2 hPa West 1.4 km/h 3.2 km/h 94% 0.0 mm 315 W/m2
19:07 18.7 °C 17.7 °C 1010.2 hPa West 1.4 km/h 3.2 km/h 94% 0.0 mm 165 W/m2
19:12 19 °C 18 °C 1010.2 hPa Calm     94% 0.0 mm 156 W/m2
19:17 19.2 °C 18.2 °C 1010.2 hPa Calm     94% 0.0 mm 192 W/m2
19:22 19.4 °C 18.4 °C 1010.2 hPa West 1.4 km/h 3.2 km/h 94% 0.0 mm 174 W/m2
19:27 19.3 °C 18.1 °C 1009.8 hPa Calm   1.6 km/h 93% 0.0 mm 156 W/m2
19:32 19.3 °C 18.1 °C 1009.8 hPa Calm     93% 0.0 mm 135 W/m2
19:37 19.3 °C 18.1 °C 1010.2 hPa Calm     93% 0.0 mm 107 W/m2
19:42 19.3 °C 18.1 °C 1010.2 hPa Calm     93% 0.0 mm 97 W/m2
19:47 19.2 °C 18 °C 1010.2 hPa Calm   1.6 km/h 93% 0.0 mm 88 W/m2
19:52 19.2 °C 18 °C 1010.2 hPa SW 1.4 km/h 1.6 km/h 93% 0.0 mm 84 W/m2
19:57 19.1 °C 17.9 °C 1010.2 hPa Calm   3.2 km/h 93% 0.0 mm 77 W/m2
20:02 19.1 °C 17.9 °C 1010.2 hPa Calm   1.6 km/h 93% 0.0 mm 69 W/m2
20:07 18.9 °C 17.7 °C 1010.2 hPa South 1.4 km/h 3.2 km/h 93% 0.0 mm 25 W/m2
20:12 18.8 °C 17.6 °C 1010.2 hPa Calm     93% 0.0 mm 23 W/m2
20:17 18.7 °C 17.4 °C 1010.5 hPa Calm   3.2 km/h 92% 0.0 mm 18 W/m2
20:22 18.6 °C 17.4 °C 1010.5 hPa Calm     93% 0.0 mm 14 W/m2
20:27 18.4 °C 17.2 °C 1010.5 hPa Calm     93% 0.0 mm 12 W/m2
20:32 18.2 °C 16.9 °C 1010.5 hPa Calm     92% 0.0 mm 9 W/m2
20:38 18 °C 16.9 °C 1010.5 hPa South 1.4 km/h 3.2 km/h 93% 0.0 mm 7 W/m2
20:43 17.8 °C 16.7 °C 1010.5 hPa Calm     93% 0.0 mm 5 W/m2
20:48 17.6 °C 16.5 °C 1010.5 hPa South 1.4 km/h 1.6 km/h 93% 0.0 mm 0 W/m2
20:53 17.4 °C 16.3 °C 1010.5 hPa Calm   1.6 km/h 93% 0.0 mm 0 W/m2
20:58 17.3 °C 16.2 °C 1010.5 hPa Calm     93% 0.0 mm 0 W/m2
21:03 17.2 °C 16.1 °C 1010.5 hPa Calm   1.6 km/h 93% 0.0 mm 0 W/m2
21:08 17.1 °C 16.1 °C 1010.5 hPa Calm     94% 0.0 mm 0 W/m2
21:13 16.9 °C 15.9 °C 1010.8 hPa Calm     94% 0.0 mm 0 W/m2
21:18 16.8 °C 15.8 °C 1010.8 hPa Calm     94% 0.0 mm 0 W/m2
21:23 16.7 °C 15.7 °C 1010.8 hPa Calm     94% 0.0 mm 0 W/m2
21:28 16.6 °C 15.6 °C 1010.8 hPa Calm     94% 0.0 mm 0 W/m2
21:33 16.6 °C 15.6 °C 1010.8 hPa Calm     94% 0.0 mm 0 W/m2
21:38 16.4 °C 15.4 °C 1010.8 hPa Calm     94% 0.0 mm 0 W/m2
21:43 16.3 °C 15.3 °C 1010.8 hPa Calm     94% 0.0 mm 0 W/m2
21:48 16.2 °C 15.2 °C 1010.8 hPa Calm     94% 0.0 mm 0 W/m2
21:53 15.9 °C 14.9 °C 1010.8 hPa Calm     94% 0.0 mm 0 W/m2
21:58 15.7 °C 14.7 °C 1010.8 hPa Calm     94% 0.0 mm 0 W/m2
22:03 15.5 °C 14.5 °C 1010.8 hPa Calm     94% 0.0 mm 0 W/m2
22:08 15.3 °C 14.3 °C 1010.8 hPa Calm     94% 0.0 mm 0 W/m2
22:13 15.3 °C 14.5 °C 1010.8 hPa Calm     95% 0.0 mm 0 W/m2
22:18 15.2 °C 14.2 °C 1011.2 hPa Calm     94% 0.0 mm 0 W/m2
22:23 15.2 °C 14.4 °C 1011.2 hPa Calm     95% 0.0 mm 0 W/m2
22:28 15.2 °C 14.4 °C 1011.2 hPa Calm     95% 0.0 mm 0 W/m2
22:33 15.1 °C 14.3 °C 1011.2 hPa Calm     95% 0.0 mm 0 W/m2
22:38 15.1 °C 14.3 °C 1011.2 hPa Calm     95% 0.0 mm 0 W/m2
22:43 15 °C 14.2 °C 1011.2 hPa Calm     95% 0.0 mm 0 W/m2
22:48 15 °C 14.2 °C 1011.2 hPa South 1.4 km/h 3.2 km/h 95% 0.0 mm 0 W/m2
22:53 15 °C 14.2 °C 1011.2 hPa Calm     95% 0.0 mm 0 W/m2
22:58 15 °C 14.4 °C 1011.2 hPa Calm   3.2 km/h 96% 0.0 mm 0 W/m2
23:03 15 °C 14.4 °C 1011.2 hPa Calm     96% 0.0 mm 0 W/m2
23:08 15.1 °C 14.3 °C 1011.2 hPa Calm     95% 0.0 mm 0 W/m2
23:13 15.1 °C 14.5 °C 1011.2 hPa Calm     96% 0.0 mm 0 W/m2
23:18 15.2 °C 14.6 °C 1011.2 hPa Calm     96% 0.0 mm 0 W/m2
23:23 15.2 °C 14.6 °C 1011.2 hPa Calm     96% 0.0 mm 0 W/m2
23:28 15.2 °C 14.6 °C 1011.2 hPa Calm     96% 0.0 mm 0 W/m2
23:33 15.2 °C 14.6 °C 1011.2 hPa Calm   1.6 km/h 96% 0.0 mm 0 W/m2
23:38 15.3 °C 14.7 °C 1011.2 hPa Calm     96% 0.0 mm 0 W/m2
23:44 15.2 °C 14.6 °C 1011.2 hPa Calm   1.6 km/h 96% 0.0 mm 0 W/m2
23:49 15.2 °C 14.6 °C 1011.2 hPa Calm     96% 0.0 mm 0 W/m2
23:54 15.1 °C 14.5 °C 1011.2 hPa Calm     96% 0.0 mm 0 W/m2
23:59 15.1 °C 14.5 °C 1011.2 hPa Calm     96% 0.0 mm 0 W/m2
Juneau County Weather
Compliments of Weather Underground - 4 mb